Time;durP1;ratioP1;P1;durP2;ratioP2;P2;SDS_P1;SDS_P2;PMS_P1;PMS_P2;Temp;Humidity;BMP_temperature;BMP_pressure;BME280_temperature;BME280_humidity;BME280_pressure;Samples;Min_cycle;Max_cycle;Signal;HPM_P1;HPM_P2
2021/12/27 00:02:00;;;;;;;14.73;10.10;;;-0.60;99.90;;;;;;5061398;28;20255;-52
2021/12/27 00:04:26;;;;;;;14.37;9.87;;;-0.60;99.90;;;;;;5046283;28;20190;-52
2021/12/27 00:06:51;;;;;;;12.37;9.90;;;-0.60;99.90;;;;;;5058133;28;20511;-55
2021/12/27 00:09:17;;;;;;;13.30;9.47;;;-0.60;99.90;;;;;;5060810;28;20663;-49
2021/12/27 00:11:43;;;;;;;15.63;10.00;;;-0.50;99.90;;;;;;5053623;28;20193;-52
2021/12/27 00:14:08;;;;;;;11.60;10.20;;;-0.50;99.90;;;;;;5058341;28;20960;-54
2021/12/27 00:16:34;;;;;;;12.90;8.93;;;-0.50;99.90;;;;;;5053227;28;20518;-53
2021/12/27 00:18:59;;;;;;;12.77;9.30;;;-0.60;99.90;;;;;;5050987;28;20201;-49
2021/12/27 00:21:25;;;;;;;13.17;10.00;;;-0.50;99.90;;;;;;5058030;28;20174;-54
2021/12/27 00:23:51;;;;;;;14.20;9.13;;;-0.50;99.90;;;;;;5059544;28;20189;-50
2021/12/27 00:26:16;;;;;;;12.13;9.70;;;-0.50;99.90;;;;;;5064066;28;20257;-56
2021/12/27 00:28:42;;;;;;;12.03;9.50;;;-0.40;99.90;;;;;;5055742;28;20652;-51
2021/12/27 00:31:07;;;;;;;13.10;9.10;;;-0.50;99.90;;;;;;5056100;28;20190;-51
2021/12/27 00:33:33;;;;;;;13.50;8.87;;;-0.50;99.90;;;;;;5054163;28;20186;-53
2021/12/27 00:35:59;;;;;;;15.30;10.30;;;-0.50;99.90;;;;;;5039007;28;20231;-51
2021/12/27 00:38:25;;;;;;;12.45;9.20;;;-0.50;99.90;;;;;;5054860;28;20183;-52
2021/12/27 00:40:50;;;;;;;12.87;9.93;;;-0.50;99.90;;;;;;5054733;28;20628;-51
2021/12/27 00:43:16;;;;;;;11.97;9.80;;;-0.50;99.90;;;;;;5060585;28;20177;-53
2021/12/27 00:45:43;;;;;;;14.00;10.00;;;-0.50;99.90;;;;;;5043771;28;20519;-53
2021/12/27 00:48:09;;;;;;;15.13;10.68;;;-0.40;99.90;;;;;;5052672;28;20451;-54
2021/12/27 00:50:35;;;;;;;13.63;9.43;;;-0.40;99.90;;;;;;5054502;28;20205;-54
2021/12/27 00:53:00;;;;;;;14.43;10.10;;;-0.40;99.90;;;;;;5058760;28;20647;-55
2021/12/27 00:55:26;;;;;;;12.70;9.87;;;-0.50;99.90;;;;;;5063948;28;20240;-52
2021/12/27 00:57:53;;;;;;;13.30;9.87;;;-0.50;99.90;;;;;;5038792;28;20545;-51
2021/12/27 01:00:21;;;;;;;12.85;9.75;;;-0.50;99.90;;;;;;5063444;28;20174;-54
2021/12/27 01:02:47;;;;;;;13.90;10.10;;;-0.50;99.90;;;;;;5060451;28;20178;-54
2021/12/27 01:05:14;;;;;;;13.38;9.43;;;-0.40;99.90;;;;;;5054824;28;20182;-53
2021/12/27 01:07:40;;;;;;;13.60;10.05;;;-0.40;99.90;;;;;;5050816;28;20192;-52
2021/12/27 01:15:47;;;;;;;14.95;9.90;;;-0.40;99.90;;;;;;5059566;28;20268;-53
2021/12/27 01:18:13;;;;;;;14.27;10.07;;;-0.30;99.90;;;;;;5055844;28;20283;-51
2021/12/27 01:20:38;;;;;;;11.52;9.07;;;-0.30;99.90;;;;;;5060488;28;20175;-53
2021/12/27 01:23:04;;;;;;;14.27;10.03;;;-0.30;99.90;;;;;;5053975;28;20612;-51
2021/12/27 01:25:29;;;;;;;9.60;8.20;;;-0.30;99.90;;;;;;5062175;28;20201;-50
2021/12/27 01:27:55;;;;;;;14.17;10.73;;;-0.40;99.90;;;;;;5056446;28;20183;-51
2021/12/27 01:30:22;;;;;;;15.57;10.30;;;-0.30;99.90;;;;;;5048057;28;20597;-53
2021/12/27 01:32:53;;;;;;;13.82;10.70;;;-0.20;99.90;;;;;;5063845;28;20213;-55
2021/12/27 01:35:20;;;;;;;17.15;10.73;;;-0.30;99.90;;;;;;5051652;28;20181;-53
2021/12/27 01:37:49;;;;;;;12.65;10.60;;;-0.30;99.90;;;;;;5057834;28;20426;-54
2021/12/27 01:40:15;;;;;;;12.50;10.05;;;-0.30;99.90;;;;;;5033713;28;20227;-54
2021/12/27 01:43:06;;;;;;;14.60;11.25;;;-0.20;99.90;;;;;;5055732;28;20213;-51
2021/12/27 01:45:34;;;;;;;13.70;9.70;;;-0.20;99.90;;;;;;5060235;28;20177;-54
2021/12/27 01:47:59;;;;;;;14.98;10.65;;;-0.20;99.90;;;;;;5047144;28;20510;-51
2021/12/27 01:50:25;;;;;;;16.30;10.23;;;-0.20;99.90;;;;;;5057881;28;20186;-54
2021/12/27 01:52:51;;;;;;;14.10;11.57;;;-0.10;99.90;;;;;;5066015;28;20174;-52
2021/12/27 01:55:17;;;;;;;13.80;11.30;;;-0.10;99.90;;;;;;5051432;28;20440;-51
2021/12/27 01:57:42;;;;;;;13.60;11.23;;;-0.10;99.90;;;;;;5040145;28;20202;-53
2021/12/27 02:00:09;;;;;;;12.10;9.83;;;-0.10;99.90;;;;;;5047938;28;20437;-52
2021/12/27 02:02:34;;;;;;;11.60;9.38;;;-0.10;99.90;;;;;;5051445;28;20190;-52
2021/12/27 02:05:00;;;;;;;14.37;9.97;;;0.00;99.90;;;;;;5056167;28;20572;-51
2021/12/27 02:07:26;;;;;;;14.53;9.93;;;0.00;99.90;;;;;;5047817;28;20631;-54
2021/12/27 02:10:01;;;;;;;16.07;9.90;;;0.00;99.90;;;;;;5047473;28;20211;-51
2021/12/27 02:12:28;;;;;;;13.77;10.50;;;0.00;99.90;;;;;;5051581;28;20288;-49
2021/12/27 02:14:54;;;;;;;15.60;10.77;;;0.00;99.90;;;;;;5049740;28;20190;-50
2021/12/27 02:17:20;;;;;;;11.18;10.07;;;0.00;99.90;;;;;;5051496;28;20244;-50
2021/12/27 02:19:51;;;;;;;14.98;10.75;;;0.00;99.90;;;;;;5059472;28;20189;-48
2021/12/27 02:22:16;;;;;;;14.35;10.07;;;0.10;99.90;;;;;;5029751;28;20186;-51
2021/12/27 02:24:42;;;;;;;15.40;10.63;;;0.10;99.90;;;;;;5060660;28;20177;-52
2021/12/27 02:27:08;;;;;;;13.03;10.40;;;0.10;99.90;;;;;;5062759;28;20448;-49
2021/12/27 02:29:34;;;;;;;14.10;9.60;;;0.00;99.90;;;;;;5053556;28;20231;-52
2021/12/27 02:32:00;;;;;;;12.93;9.98;;;-0.10;99.90;;;;;;5056418;28;20182;-48
2021/12/27 02:34:25;;;;;;;16.25;11.23;;;-0.10;99.90;;;;;;5061143;28;20178;-49
2021/12/27 02:36:51;;;;;;;13.87;9.67;;;-0.20;99.90;;;;;;5061323;28;20263;-51
2021/12/27 02:39:17;;;;;;;12.30;9.10;;;-0.10;99.90;;;;;;5053382;28;20270;-51
2021/12/27 02:41:43;;;;;;;15.68;10.35;;;-0.10;99.90;;;;;;5049233;28;20294;-53
2021/12/27 02:44:09;;;;;;;14.43;10.83;;;-0.10;99.90;;;;;;5060477;28;20205;-52
2021/12/27 02:46:35;;;;;;;12.87;9.73;;;-0.10;99.90;;;;;;5049603;28;20261;-55
2021/12/27 02:49:00;;;;;;;16.77;10.43;;;-0.10;99.90;;;;;;5050371;28;20733;-51
2021/12/27 02:51:26;;;;;;;14.73;10.90;;;-0.10;99.90;;;;;;5047645;28;20440;-52
2021/12/27 02:53:51;;;;;;;16.67;10.77;;;-0.10;99.90;;;;;;5049465;28;20247;-50
2021/12/27 02:56:18;;;;;;;14.30;10.17;;;-0.10;99.90;;;;;;5051442;28;20198;-52
2021/12/27 02:58:45;;;;;;;13.57;10.50;;;-0.10;99.90;;;;;;5049269;28;20217;-53
2021/12/27 03:01:14;;;;;;;13.98;10.30;;;-0.10;99.90;;;;;;5056672;28;20186;-54
2021/12/27 03:03:40;;;;;;;16.35;10.50;;;-0.10;99.90;;;;;;5045742;28;20265;-51
2021/12/27 03:06:07;;;;;;;11.55;9.35;;;-0.10;99.90;;;;;;5039941;28;20189;-50
2021/12/27 03:08:33;;;;;;;15.27;9.88;;;-0.10;99.90;;;;;;5053016;28;20220;-53
2021/12/27 03:11:00;;;;;;;15.80;10.68;;;-0.10;99.90;;;;;;5054441;28;20182;-53
2021/12/27 03:13:28;;;;;;;13.23;10.88;;;-0.10;99.90;;;;;;5046693;28;20206;-54
2021/12/27 03:15:59;;;;;;;13.65;10.18;;;-0.10;99.90;;;;;;5055729;28;20600;-54
2021/12/27 03:18:25;;;;;;;15.68;10.00;;;0.00;99.90;;;;;;5049516;28;20221;-55
2021/12/27 03:20:52;;;;;;;15.90;10.50;;;0.00;99.90;;;;;;5056180;28;20223;-52
2021/12/27 03:23:18;;;;;;;19.00;11.40;;;0.00;99.90;;;;;;5033680;28;20435;-49
2021/12/27 03:25:44;;;;;;;13.68;11.05;;;0.00;99.90;;;;;;5062974;28;20224;-48
2021/12/27 03:28:11;;;;;;;13.93;10.23;;;0.00;99.90;;;;;;5053100;28;20186;-51
2021/12/27 03:30:37;;;;;;;13.82;9.82;;;0.00;99.90;;;;;;5047130;28;20540;-51
2021/12/27 03:33:05;;;;;;;15.32;10.85;;;0.00;99.90;;;;;;5052098;28;20197;-53
2021/12/27 03:35:36;;;;;;;14.10;10.48;;;0.10;99.90;;;;;;5057760;28;20521;-55
2021/12/27 03:38:06;;;;;;;13.88;10.40;;;0.00;99.90;;;;;;5048051;28;20222;-50
2021/12/27 03:40:32;;;;;;;14.75;10.30;;;0.00;99.90;;;;;;5045578;28;20276;-52
2021/12/27 03:42:58;;;;;;;15.38;9.98;;;0.10;99.90;;;;;;5060798;28;20194;-52
2021/12/27 03:45:30;;;;;;;16.45;10.30;;;0.10;99.90;;;;;;5058488;28;20244;-49
2021/12/27 03:47:56;;;;;;;15.07;9.52;;;0.00;99.90;;;;;;5053650;28;20640;-53
2021/12/27 03:50:24;;;;;;;14.73;10.80;;;0.10;99.90;;;;;;5057920;28;20265;-53
2021/12/27 03:52:50;;;;;;;13.85;9.60;;;0.10;99.90;;;;;;5065503;28;20191;-50
2021/12/27 03:55:16;;;;;;;16.02;11.05;;;0.20;99.90;;;;;;5062842;28;20935;-53
2021/12/27 03:57:51;;;;;;;14.50;10.00;;;0.20;99.90;;;;;;5052650;28;20234;-51
2021/12/27 04:02:42;;;;;;;14.47;10.03;;;0.20;99.90;;;;;;5056024;28;20181;-50
2021/12/27 04:05:09;;;;;;;12.33;9.77;;;0.10;99.90;;;;;;5051447;28;20178;-51
2021/12/27 04:07:37;;;;;;;14.90;10.15;;;0.10;99.90;;;;;;5059916;28;20439;-54
2021/12/27 04:10:05;;;;;;;17.17;10.48;;;0.10;99.90;;;;;;5050848;28;20210;-52
2021/12/27 04:12:31;;;;;;;18.25;10.65;;;0.10;99.90;;;;;;5055589;28;20193;-51
2021/12/27 04:14:57;;;;;;;14.60;9.80;;;0.10;99.90;;;;;;5055768;28;20592;-52
2021/12/27 04:17:22;;;;;;;13.70;9.47;;;0.10;99.90;;;;;;5061798;28;20229;-50
2021/12/27 04:19:48;;;;;;;14.63;11.03;;;0.10;99.90;;;;;;5056273;28;20273;-50
2021/12/27 04:22:13;;;;;;;18.63;11.03;;;0.10;99.90;;;;;;5041688;28;20232;-52
2021/12/27 04:24:39;;;;;;;15.57;11.00;;;0.10;99.90;;;;;;5052269;28;20186;-49
2021/12/27 04:27:04;;;;;;;14.83;10.80;;;0.10;99.90;;;;;;5060098;28;20210;-50
2021/12/27 04:29:30;;;;;;;14.93;10.40;;;0.20;99.90;;;;;;5049101;28;20313;-52
2021/12/27 04:31:55;;;;;;;14.80;9.87;;;0.10;99.90;;;;;;5042634;28;20639;-51
2021/12/27 04:34:21;;;;;;;15.30;10.53;;;0.10;99.90;;;;;;5066078;28;20178;-54
2021/12/27 04:36:46;;;;;;;15.17;10.30;;;0.10;99.90;;;;;;5058880;28;20285;-51
2021/12/27 04:39:12;;;;;;;13.60;10.10;;;0.10;99.90;;;;;;5062703;28;20265;-50
2021/12/27 04:41:39;;;;;;;15.70;11.70;;;0.20;99.90;;;;;;5058923;28;20205;-51
2021/12/27 04:44:05;;;;;;;13.32;10.30;;;0.20;99.90;;;;;;5052426;28;20182;-54
2021/12/27 04:46:31;;;;;;;16.10;10.67;;;0.20;99.90;;;;;;5049474;28;20186;-51
2021/12/27 04:48:56;;;;;;;19.17;10.85;;;0.20;99.90;;;;;;5060016;28;20523;-50
2021/12/27 04:51:22;;;;;;;15.67;10.60;;;0.20;99.90;;;;;;5056955;28;20755;-50
2021/12/27 04:53:52;;;;;;;17.00;11.00;;;0.20;99.90;;;;;;5062323;28;20719;-51
2021/12/27 04:56:17;;;;;;;14.63;10.65;;;0.20;99.90;;;;;;5057752;28;20286;-50
2021/12/27 04:58:46;;;;;;;12.93;9.57;;;0.20;99.90;;;;;;5049664;28;20699;-52
2021/12/27 05:01:13;;;;;;;13.45;10.25;;;0.20;99.90;;;;;;5051015;28;20224;-52
2021/12/27 05:03:39;;;;;;;13.13;10.70;;;0.30;99.90;;;;;;5056937;28;20201;-49
2021/12/27 05:06:06;;;;;;;15.02;10.77;;;0.30;99.90;;;;;;5050726;28;20205;-56
2021/12/27 05:08:31;;;;;;;16.20;10.50;;;0.30;99.90;;;;;;5061868;28;20183;-51
2021/12/27 05:10:57;;;;;;;13.10;10.57;;;0.30;99.90;;;;;;5034232;28;20505;-50
2021/12/27 05:13:23;;;;;;;16.13;10.20;;;0.30;99.90;;;;;;5053188;28;20841;-49
2021/12/27 05:15:48;;;;;;;16.17;10.47;;;0.30;99.90;;;;;;5057538;28;20190;-51
2021/12/27 05:18:14;;;;;;;18.30;11.33;;;0.30;99.90;;;;;;5053244;28;20801;-54
2021/12/27 05:20:39;;;;;;;16.43;10.63;;;0.30;99.90;;;;;;5035538;28;20208;-53
2021/12/27 05:23:05;;;;;;;14.60;10.30;;;0.30;99.90;;;;;;5054109;28;20205;-51
2021/12/27 05:25:31;;;;;;;14.10;9.67;;;0.30;99.90;;;;;;5044235;28;20205;-50
2021/12/27 05:27:57;;;;;;;16.50;11.30;;;0.30;99.90;;;;;;5040748;28;20513;-51
2021/12/27 05:30:22;;;;;;;14.50;10.67;;;0.20;99.90;;;;;;5023748;28;20229;-51
2021/12/27 05:32:48;;;;;;;14.97;9.93;;;0.20;99.90;;;;;;5041019;28;21028;-52
2021/12/27 05:35:15;;;;;;;13.85;10.40;;;0.20;99.90;;;;;;5039553;28;20191;-52
2021/12/27 05:37:42;;;;;;;16.70;10.95;;;0.30;99.90;;;;;;5022381;28;20263;-49
2021/12/27 05:40:12;;;;;;;12.35;9.93;;;0.20;99.90;;;;;;5040658;28;20179;-53
2021/12/27 05:42:38;;;;;;;13.50;10.30;;;0.20;99.90;;;;;;5041328;28;20183;-48
2021/12/27 05:45:05;;;;;;;14.50;10.50;;;0.30;99.90;;;;;;5040209;28;20197;-53
2021/12/27 05:47:31;;;;;;;15.05;10.00;;;0.20;99.90;;;;;;5040678;28;20452;-54
2021/12/27 05:49:57;;;;;;;15.57;10.00;;;0.20;99.90;;;;;;5040431;28;20196;-53
2021/12/27 05:52:22;;;;;;;14.50;9.80;;;0.20;99.90;;;;;;5041258;28;20255;-53
2021/12/27 05:54:48;;;;;;;14.33;10.00;;;0.20;99.90;;;;;;5040304;28;20194;-49
2021/12/27 05:57:13;;;;;;;17.40;11.43;;;0.20;99.90;;;;;;5050672;28;20679;-54
2021/12/27 05:59:39;;;;;;;12.03;9.40;;;0.20;99.90;;;;;;5059627;28;20225;-53
2021/12/27 06:02:04;;;;;;;13.40;9.60;;;0.20;99.90;;;;;;5044645;28;20220;-53
2021/12/27 06:04:30;;;;;;;18.00;10.07;;;0.20;99.90;;;;;;5049324;28;20188;-49
2021/12/27 06:06:56;;;;;;;15.13;10.83;;;0.20;99.90;;;;;;5059792;28;20277;-50
2021/12/27 06:09:21;;;;;;;17.47;10.70;;;0.10;99.90;;;;;;5051500;28;20193;-51
2021/12/27 06:11:47;;;;;;;13.80;9.53;;;0.20;99.90;;;;;;5063487;28;20192;-51
2021/12/27 06:14:12;;;;;;;14.77;10.53;;;0.20;99.90;;;;;;5049303;28;20257;-49
2021/12/27 06:16:38;;;;;;;16.80;10.20;;;0.20;99.90;;;;;;5060676;28;20210;-52
2021/12/27 06:19:04;;;;;;;16.10;10.17;;;0.20;99.90;;;;;;5056707;28;20701;-55
2021/12/27 06:21:31;;;;;;;17.20;11.20;;;0.20;99.90;;;;;;5051791;28;20432;-52
2021/12/27 06:23:57;;;;;;;12.85;9.77;;;0.20;99.90;;;;;;5055560;28;20199;-50
2021/12/27 06:26:22;;;;;;;15.50;11.05;;;0.20;99.90;;;;;;5050515;28;20247;-48
2021/12/27 06:28:48;;;;;;;15.20;10.17;;;0.20;99.90;;;;;;5056957;28;20191;-52
2021/12/27 06:31:14;;;;;;;14.30;10.40;;;0.20;99.90;;;;;;5058929;28;20181;-49
2021/12/27 06:33:39;;;;;;;18.37;11.03;;;0.20;99.90;;;;;;5052464;28;20288;-50
2021/12/27 06:36:05;;;;;;;15.53;10.73;;;0.30;99.90;;;;;;5050686;28;20188;-49
2021/12/27 06:38:31;;;;;;;13.00;9.10;;;0.30;99.90;;;;;;5049397;28;20185;-53
2021/12/27 06:40:58;;;;;;;13.93;10.40;;;0.30;99.90;;;;;;5063826;28;20420;-51
2021/12/27 06:43:24;;;;;;;14.40;9.95;;;0.30;99.90;;;;;;5058826;28;20264;-49
2021/12/27 06:45:50;;;;;;;16.33;10.70;;;0.30;99.90;;;;;;5052600;28;20289;-51
2021/12/27 06:48:15;;;;;;;14.90;10.57;;;0.30;99.90;;;;;;5055176;28;20471;-50
2021/12/27 06:50:41;;;;;;;12.93;9.97;;;0.30;99.90;;;;;;5049590;28;20278;-50
2021/12/27 06:53:07;;;;;;;14.60;10.68;;;0.30;99.90;;;;;;5047956;28;20182;-51
2021/12/27 06:55:33;;;;;;;12.70;9.87;;;0.30;99.90;;;;;;5052302;28;20282;-51
2021/12/27 06:57:58;;;;;;;12.90;9.00;;;0.30;99.90;;;;;;5053814;28;20316;-53
2021/12/27 07:00:24;;;;;;;15.30;10.47;;;0.30;99.90;;;;;;5052729;28;20180;-50
2021/12/27 07:02:50;;;;;;;14.83;10.67;;;0.20;99.90;;;;;;5055633;28;20220;-52
2021/12/27 07:05:17;;;;;;;13.73;9.87;;;0.20;99.90;;;;;;5059074;28;20247;-55
2021/12/27 07:07:43;;;;;;;19.77;11.52;;;0.20;99.90;;;;;;5058075;28;20182;-50
2021/12/27 07:10:12;;;;;;;12.90;10.40;;;0.30;99.90;;;;;;5060955;28;20200;-50
2021/12/27 07:12:37;;;;;;;15.45;10.98;;;0.30;99.90;;;;;;5053701;28;20182;-52
2021/12/27 07:15:03;;;;;;;16.80;10.77;;;0.20;99.90;;;;;;5053834;28;20637;-52
2021/12/27 07:17:29;;;;;;;14.43;10.63;;;0.20;99.90;;;;;;5061500;28;20262;-50
2021/12/27 07:19:54;;;;;;;13.43;9.70;;;0.20;99.90;;;;;;5075269;28;20507;-54
2021/12/27 07:22:20;;;;;;;15.50;9.93;;;0.20;99.90;;;;;;5080230;28;20182;-50
2021/12/27 07:24:45;;;;;;;14.27;9.90;;;0.20;99.90;;;;;;5080480;28;20583;-53
2021/12/27 07:27:12;;;;;;;18.27;11.73;;;0.20;99.90;;;;;;5081500;28;20650;-51
2021/12/27 07:29:38;;;;;;;13.83;9.83;;;0.20;99.90;;;;;;5073070;28;20185;-52
2021/12/27 07:32:04;;;;;;;15.07;11.13;;;0.20;99.90;;;;;;5071766;28;20189;-51
2021/12/27 07:34:30;;;;;;;13.65;10.20;;;0.10;99.90;;;;;;5071362;28;20185;-53
2021/12/27 07:36:56;;;;;;;16.20;10.48;;;0.10;99.90;;;;;;5072553;28;20202;-51
2021/12/27 07:39:23;;;;;;;18.75;12.00;;;0.10;99.90;;;;;;5066184;28;20187;-52
2021/12/27 07:41:49;;;;;;;14.98;10.40;;;0.10;99.90;;;;;;5068974;28;20181;-50
2021/12/27 07:44:16;;;;;;;15.93;10.47;;;0.20;99.90;;;;;;5076240;28;20454;-54
2021/12/27 07:46:43;;;;;;;13.65;10.50;;;0.20;99.90;;;;;;5072534;28;20298;-48
2021/12/27 07:49:11;;;;;;;20.10;10.48;;;0.20;99.90;;;;;;5071219;28;20587;-52
2021/12/27 07:51:37;;;;;;;14.00;10.23;;;0.20;99.90;;;;;;5071911;28;20243;-54
2021/12/27 07:54:03;;;;;;;15.27;11.10;;;0.20;99.90;;;;;;5078461;28;20198;-54
2021/12/27 07:56:29;;;;;;;17.02;12.38;;;0.20;99.90;;;;;;5067277;28;20213;-55
2021/12/27 07:58:55;;;;;;;13.53;9.97;;;0.30;99.90;;;;;;5085840;28;20188;-52
2021/12/27 08:01:20;;;;;;;13.77;9.30;;;0.30;99.90;;;;;;5080490;28;20173;-52
2021/12/27 08:03:46;;;;;;;17.87;12.43;;;0.30;99.90;;;;;;5086441;28;20238;-51
2021/12/27 08:06:12;;;;;;;14.27;10.82;;;0.40;99.90;;;;;;5080613;28;20672;-49
2021/12/27 08:08:38;;;;;;;14.47;10.10;;;0.40;99.90;;;;;;5080285;28;20186;-54
2021/12/27 08:11:03;;;;;;;15.60;10.43;;;0.50;99.90;;;;;;5077819;28;20205;-51
2021/12/27 08:13:29;;;;;;;13.73;9.30;;;0.60;99.90;;;;;;5078568;28;20174;-57
2021/12/27 08:15:55;;;;;;;15.20;9.57;;;0.60;99.90;;;;;;5082298;28;20184;-57
2021/12/27 08:18:21;;;;;;;12.93;9.70;;;0.60;99.90;;;;;;5063890;28;20229;-50
2021/12/27 08:20:47;;;;;;;12.95;9.50;;;0.60;99.90;;;;;;5053721;28;20170;-57
2021/12/27 08:23:13;;;;;;;12.38;9.25;;;0.70;99.90;;;;;;5062194;28;20173;-54
2021/12/27 08:25:39;;;;;;;12.87;8.90;;;0.70;99.90;;;;;;5066774;28;20231;-57
2021/12/27 08:28:05;;;;;;;13.20;9.67;;;0.70;99.90;;;;;;5066046;28;20435;-57
2021/12/27 08:30:31;;;;;;;14.07;9.87;;;0.70;99.90;;;;;;5070885;28;20200;-54
2021/12/27 08:32:59;;;;;;;14.07;9.73;;;0.70;99.90;;;;;;5076070;28;20432;-54
2021/12/27 08:35:25;;;;;;;16.25;10.05;;;0.70;99.90;;;;;;5077492;28;21193;-52
2021/12/27 08:37:51;;;;;;;14.20;9.38;;;0.70;99.90;;;;;;5066616;28;20285;-51
2021/12/27 08:40:17;;;;;;;16.47;9.70;;;0.80;99.90;;;;;;5059741;28;20194;-50
2021/12/27 08:42:42;;;;;;;12.97;9.83;;;0.70;99.90;;;;;;5079447;28;20220;-53
2021/12/27 08:45:09;;;;;;;15.87;10.50;;;0.70;99.90;;;;;;5080034;28;20932;-54
2021/12/27 08:47:35;;;;;;;17.33;10.75;;;0.70;99.90;;;;;;5072170;28;20189;-51
2021/12/27 08:50:00;;;;;;;13.83;9.83;;;0.80;99.90;;;;;;5067640;28;20182;-47
2021/12/27 08:52:29;;;;;;;13.23;9.97;;;0.80;99.90;;;;;;5054314;28;20182;-52
2021/12/27 08:54:55;;;;;;;14.75;10.32;;;0.80;99.90;;;;;;5066189;28;20177;-51
2021/12/27 08:57:20;;;;;;;12.67;9.73;;;0.80;99.90;;;;;;5067207;28;20186;-50
2021/12/27 08:59:46;;;;;;;14.90;11.10;;;0.80;99.90;;;;;;5059036;28;20178;-54
2021/12/27 09:02:12;;;;;;;14.30;10.13;;;0.80;99.90;;;;;;5073888;28;20489;-53
2021/12/27 09:04:38;;;;;;;14.10;10.38;;;0.90;99.90;;;;;;5046592;28;20182;-53
2021/12/27 09:07:04;;;;;;;14.90;10.30;;;0.90;99.90;;;;;;5071176;28;20326;-50
2021/12/27 09:09:31;;;;;;;15.07;10.60;;;0.90;99.90;;;;;;5060398;28;20212;-54
2021/12/27 09:11:57;;;;;;;14.40;10.40;;;0.90;99.90;;;;;;5064367;28;20605;-49
2021/12/27 09:14:22;;;;;;;14.90;11.40;;;1.00;99.90;;;;;;5073131;28;20189;-57
2021/12/27 09:16:48;;;;;;;15.67;11.47;;;1.00;99.90;;;;;;5062481;28;20485;-54
2021/12/27 09:19:14;;;;;;;14.87;10.43;;;1.10;99.90;;;;;;5060256;28;20182;-53
2021/12/27 09:21:41;;;;;;;15.18;11.65;;;1.20;99.90;;;;;;5061273;28;20208;-55
2021/12/27 09:24:07;;;;;;;16.60;11.70;;;1.20;99.90;;;;;;5045220;28;20174;-53
2021/12/27 09:26:33;;;;;;;17.30;10.83;;;1.10;99.90;;;;;;5060639;28;20268;-57
2021/12/27 09:28:59;;;;;;;15.30;10.02;;;1.10;99.90;;;;;;5057920;28;20173;-55
2021/12/27 09:31:25;;;;;;;16.10;10.70;;;1.20;99.90;;;;;;5060068;28;20182;-58
2021/12/27 09:33:51;;;;;;;13.18;10.30;;;1.10;99.90;;;;;;5060526;28;20193;-57
2021/12/27 09:36:16;;;;;;;15.80;11.50;;;1.20;99.90;;;;;;5061971;28;20694;-55
2021/12/27 09:38:42;;;;;;;13.37;10.10;;;1.20;99.90;;;;;;5056353;28;20185;-51
2021/12/27 09:41:08;;;;;;;13.98;9.90;;;1.30;99.90;;;;;;5066212;28;20170;-58
2021/12/27 09:43:35;;;;;;;16.97;11.20;;;1.30;99.90;;;;;;5060414;28;20549;-53
2021/12/27 09:46:03;;;;;;;13.88;10.10;;;1.30;99.90;;;;;;5059026;28;20280;-49
2021/12/27 09:48:28;;;;;;;15.02;10.85;;;1.30;99.90;;;;;;5051509;28;20228;-50
2021/12/27 09:50:56;;;;;;;14.47;10.33;;;1.40;99.90;;;;;;5053973;28;20183;-53
2021/12/27 09:53:23;;;;;;;14.30;10.43;;;1.30;99.90;;;;;;5051073;28;20178;-57
2021/12/27 09:55:49;;;;;;;14.25;10.60;;;1.40;99.90;;;;;;5051765;28;20623;-54
2021/12/27 09:58:14;;;;;;;16.60;11.60;;;1.50;99.90;;;;;;5053888;28;20244;-52
2021/12/27 10:00:42;;;;;;;16.53;11.60;;;1.50;99.90;;;;;;5053828;28;20459;-53
2021/12/27 10:03:09;;;;;;;14.00;10.40;;;1.60;99.90;;;;;;5056495;28;20678;-53
2021/12/27 10:05:36;;;;;;;15.80;11.23;;;1.70;99.90;;;;;;5057196;28;20181;-56
2021/12/27 10:08:03;;;;;;;16.08;10.68;;;1.80;99.90;;;;;;5056102;28;20256;-52
2021/12/27 10:10:34;;;;;;;12.80;9.80;;;1.90;99.90;;;;;;5066872;28;20197;-55
2021/12/27 10:13:05;;;;;;;15.82;10.88;;;2.00;99.90;;;;;;5056247;28;20183;-49
2021/12/27 10:15:41;;;;;;;16.17;11.20;;;2.10;99.90;;;;;;5039332;28;20186;-52
2021/12/27 10:18:15;;;;;;;16.27;10.70;;;2.00;99.90;;;;;;5032252;28;20308;-52
2021/12/27 10:20:42;;;;;;;15.50;11.10;;;1.90;99.90;;;;;;5040995;28;20179;-50
2021/12/27 10:23:09;;;;;;;14.85;10.52;;;1.90;99.90;;;;;;5046431;28;20516;-52
2021/12/27 10:25:35;;;;;;;16.40;10.48;;;1.80;99.90;;;;;;5044527;28;20657;-54
2021/12/27 10:28:02;;;;;;;14.60;10.73;;;1.90;99.90;;;;;;5054533;28;20244;-49
2021/12/27 10:30:31;;;;;;;14.77;11.88;;;1.90;99.90;;;;;;5046859;28;20586;-51
2021/12/27 10:33:08;;;;;;;14.25;10.73;;;1.80;99.90;;;;;;5043542;28;20182;-53
2021/12/27 10:35:43;;;;;;;15.05;11.02;;;1.80;99.90;;;;;;5054953;28;20185;-52
2021/12/27 10:38:17;;;;;;;15.88;11.82;;;1.80;99.90;;;;;;5055549;28;20201;-52
2021/12/27 10:40:57;;;;;;;14.15;10.57;;;1.90;99.90;;;;;;5049219;28;20178;-53
2021/12/27 10:43:44;;;;;;;16.08;11.25;;;1.80;99.90;;;;;;5048973;28;20613;-53
2021/12/27 10:46:15;;;;;;;20.23;12.88;;;1.80;99.90;;;;;;5050902;28;20184;-53
2021/12/27 10:48:57;;;;;;;19.40;13.25;;;1.70;99.90;;;;;;5048939;28;20182;-52
2021/12/27 10:51:27;;;;;;;18.77;12.43;;;1.70;99.90;;;;;;5046885;28;20628;-56
2021/12/27 10:53:55;;;;;;;16.00;11.68;;;1.70;99.90;;;;;;5046986;28;20561;-49
2021/12/27 10:56:25;;;;;;;18.10;12.30;;;1.80;99.90;;;;;;5040890;28;20558;-54
2021/12/27 10:58:59;;;;;;;13.68;10.70;;;1.80;99.90;;;;;;5055714;28;20193;-53
2021/12/27 11:01:27;;;;;;;18.10;12.02;;;1.80;99.90;;;;;;5041431;28;20186;-51
2021/12/27 11:03:55;;;;;;;18.05;12.90;;;1.80;99.90;;;;;;5048164;28;20634;-52
2021/12/27 11:06:26;;;;;;;17.05;11.82;;;1.90;99.90;;;;;;5036292;28;20275;-53
2021/12/27 11:08:53;;;;;;;17.90;12.07;;;1.90;99.90;;;;;;5055137;28;20656;-51
2021/12/27 11:11:25;;;;;;;18.17;13.60;;;1.80;99.90;;;;;;5044500;28;20178;-49
2021/12/27 11:13:54;;;;;;;18.75;12.57;;;1.80;99.90;;;;;;5029181;28;20658;-49
2021/12/27 11:16:20;;;;;;;22.40;12.95;;;1.70;99.90;;;;;;5048524;28;20178;-52
2021/12/27 11:18:46;;;;;;;19.08;12.60;;;1.70;99.90;;;;;;5051761;28;20250;-49
2021/12/27 11:21:17;;;;;;;16.38;11.68;;;1.70;99.90;;;;;;5073132;28;20555;-52
2021/12/27 11:23:46;;;;;;;17.65;12.27;;;1.70;99.90;;;;;;5060143;28;20165;-51
2021/12/27 11:26:14;;;;;;;18.70;12.77;;;1.70;99.90;;;;;;5065659;28;20178;-49
2021/12/27 11:28:42;;;;;;;16.92;11.98;;;1.80;99.90;;;;;;5062771;28;20232;-54
2021/12/27 11:31:25;;;;;;;18.58;12.15;;;1.80;99.90;;;;;;5076364;28;20169;-56
2021/12/27 11:33:55;;;;;;;18.25;12.63;;;1.80;99.90;;;;;;5074718;28;20184;-59
2021/12/27 11:36:28;;;;;;;15.13;10.82;;;1.80;99.90;;;;;;5067362;28;20177;-55
2021/12/27 11:38:53;;;;;;;19.00;12.65;;;1.90;99.90;;;;;;5070481;28;20671;-59
2021/12/27 11:41:34;;;;;;;17.23;12.23;;;1.90;99.90;;;;;;5067949;28;20256;-53
2021/12/27 11:44:04;;;;;;;15.98;12.07;;;2.00;99.90;;;;;;5070793;28;20431;-57
2021/12/27 11:46:52;;;;;;;16.48;12.07;;;1.90;99.90;;;;;;5082201;28;20181;-56
2021/12/27 11:49:56;;;;;;;15.02;11.63;;;1.80;99.90;;;;;;5063668;28;20188;-56
2021/12/27 11:52:26;;;;;;;17.17;11.27;;;1.80;99.90;;;;;;5057004;28;20215;-56
2021/12/27 11:54:58;;;;;;;17.08;12.18;;;1.80;99.90;;;;;;5063938;28;20300;-54
2021/12/27 11:57:42;;;;;;;18.77;12.50;;;1.70;99.90;;;;;;5069588;28;20202;-56
2021/12/27 12:00:19;;;;;;;16.10;11.32;;;1.70;99.90;;;;;;5051228;28;20847;-57
2021/12/27 12:02:54;;;;;;;18.48;12.25;;;1.80;99.90;;;;;;5055859;28;20199;-57
2021/12/27 12:05:47;;;;;;;19.20;13.43;;;1.90;99.90;;;;;;5058566;28;20193;-55
2021/12/27 12:08:19;;;;;;;19.98;13.13;;;1.90;99.90;;;;;;5056591;28;20185;-54
2021/12/27 12:11:01;;;;;;;18.98;12.05;;;1.90;99.90;;;;;;5063271;28;20181;-57
2021/12/27 12:13:39;;;;;;;19.75;12.43;;;2.00;99.90;;;;;;5065754;28;20735;-49
2021/12/27 12:16:14;;;;;;;17.98;12.32;;;1.90;99.90;;;;;;5063497;28;20697;-53
2021/12/27 12:19:09;;;;;;;19.15;12.93;;;1.90;99.90;;;;;;5058157;28;20360;-57
2021/12/27 12:21:41;;;;;;;20.30;13.20;;;2.00;99.90;;;;;;5056853;28;20995;-59
2021/12/27 12:24:15;;;;;;;17.50;12.70;;;2.10;99.90;;;;;;5077387;28;20182;-50
2021/12/27 12:26:49;;;;;;;19.73;13.27;;;2.00;99.90;;;;;;5043269;28;20229;-57
2021/12/27 12:29:14;;;;;;;19.90;13.75;;;2.00;99.90;;;;;;5062149;28;20659;-56
2021/12/27 12:31:40;;;;;;;18.87;12.83;;;2.00;99.90;;;;;;5064025;28;20243;-53
2021/12/27 12:34:19;;;;;;;19.10;14.00;;;2.10;99.90;;;;;;5068361;28;20186;-52
2021/12/27 12:36:52;;;;;;;20.17;14.07;;;2.10;99.90;;;;;;5076036;28;20200;-54
2021/12/27 12:39:21;;;;;;;18.55;13.05;;;2.00;99.90;;;;;;5064886;28;20239;-49
2021/12/27 12:41:48;;;;;;;22.25;14.30;;;2.00;99.90;;;;;;5070488;28;20174;-58
2021/12/27 12:44:14;;;;;;;21.20;14.10;;;2.00;99.90;;;;;;5070720;28;20190;-52
2021/12/27 12:46:46;;;;;;;22.25;14.05;;;1.90;99.90;;;;;;5068463;28;20181;-54
2021/12/27 12:49:16;;;;;;;20.08;13.43;;;1.80;99.90;;;;;;5067397;28;20189;-52